sensor_id;sensor_type;location;lat;lon;timestamp;P1;durP1;ratioP1;P2;durP2;ratioP2
23113;SDS011;11726;50.122;8.832;2022-08-19T00:01:58;22.98;;;17.67;;
23113;SDS011;11726;50.122;8.832;2022-08-19T00:04:30;18.95;;;16.17;;
23113;SDS011;11726;50.122;8.832;2022-08-19T00:07:00;18.73;;;16.40;;
23113;SDS011;11726;50.122;8.832;2022-08-19T00:09:27;18.77;;;16.38;;
23113;SDS011;11726;50.122;8.832;2022-08-19T00:11:55;22.30;;;18.35;;
23113;SDS011;11726;50.122;8.832;2022-08-19T00:14:24;18.65;;;16.63;;
23113;SDS011;11726;50.122;8.832;2022-08-19T00:16:52;19.95;;;17.58;;
23113;SDS011;11726;50.122;8.832;2022-08-19T00:19:20;21.05;;;16.83;;
23113;SDS011;11726;50.122;8.832;2022-08-19T00:21:48;21.13;;;18.02;;
23113;SDS011;11726;50.122;8.832;2022-08-19T00:24:15;18.60;;;16.50;;
23113;SDS011;11726;50.122;8.832;2022-08-19T00:26:43;19.30;;;16.88;;
23113;SDS011;11726;50.122;8.832;2022-08-19T00:29:11;19.27;;;16.42;;
23113;SDS011;11726;50.122;8.832;2022-08-19T00:31:42;21.55;;;17.75;;
23113;SDS011;11726;50.122;8.832;2022-08-19T00:34:11;19.52;;;16.45;;
23113;SDS011;11726;50.122;8.832;2022-08-19T00:36:39;19.40;;;16.52;;
23113;SDS011;11726;50.122;8.832;2022-08-19T00:39:06;20.63;;;17.75;;
23113;SDS011;11726;50.122;8.832;2022-08-19T00:41:34;21.88;;;16.85;;
23113;SDS011;11726;50.122;8.832;2022-08-19T00:46:34;19.33;;;16.73;;
23113;SDS011;11726;50.122;8.832;2022-08-19T00:49:38;19.52;;;17.42;;
23113;SDS011;11726;50.122;8.832;2022-08-19T00:52:09;19.08;;;16.67;;
23113;SDS011;11726;50.122;8.832;2022-08-19T00:54:42;21.33;;;17.42;;
23113;SDS011;11726;50.122;8.832;2022-08-19T00:57:15;20.58;;;18.02;;
23113;SDS011;11726;50.122;8.832;2022-08-19T00:59:45;19.10;;;16.70;;
23113;SDS011;11726;50.122;8.832;2022-08-19T01:02:27;20.08;;;16.42;;
23113;SDS011;11726;50.122;8.832;2022-08-19T01:04:55;19.13;;;17.13;;
23113;SDS011;11726;50.122;8.832;2022-08-19T01:07:22;19.50;;;17.02;;
23113;SDS011;11726;50.122;8.832;2022-08-19T01:09:49;20.83;;;18.42;;
23113;SDS011;11726;50.122;8.832;2022-08-19T01:12:16;18.52;;;16.55;;
23113;SDS011;11726;50.122;8.832;2022-08-19T01:14:43;23.55;;;18.95;;
23113;SDS011;11726;50.122;8.832;2022-08-19T01:17:11;20.55;;;17.33;;
23113;SDS011;11726;50.122;8.832;2022-08-19T01:19:40;19.27;;;16.70;;
23113;SDS011;11726;50.122;8.832;2022-08-19T01:22:30;19.98;;;17.70;;
23113;SDS011;11726;50.122;8.832;2022-08-19T01:25:03;20.58;;;17.73;;
23113;SDS011;11726;50.122;8.832;2022-08-19T01:27:41;18.15;;;16.25;;
23113;SDS011;11726;50.122;8.832;2022-08-19T01:30:21;19.50;;;16.15;;
23113;SDS011;11726;50.122;8.832;2022-08-19T01:32:50;19.02;;;17.02;;
23113;SDS011;11726;50.122;8.832;2022-08-19T01:35:19;20.92;;;17.38;;
23113;SDS011;11726;50.122;8.832;2022-08-19T01:40:20;21.80;;;16.70;;
23113;SDS011;11726;50.122;8.832;2022-08-19T01:42:49;20.88;;;17.52;;
23113;SDS011;11726;50.122;8.832;2022-08-19T01:45:17;19.48;;;17.13;;
23113;SDS011;11726;50.122;8.832;2022-08-19T01:47:45;18.08;;;15.98;;
23113;SDS011;11726;50.122;8.832;2022-08-19T01:50:26;19.27;;;16.20;;
23113;SDS011;11726;50.122;8.832;2022-08-19T01:52:53;20.27;;;16.10;;
23113;SDS011;11726;50.122;8.832;2022-08-19T01:55:31;21.13;;;17.30;;
23113;SDS011;11726;50.122;8.832;2022-08-19T01:58:00;18.67;;;16.17;;
23113;SDS011;11726;50.122;8.832;2022-08-19T02:00:31;21.30;;;16.00;;
23113;SDS011;11726;50.122;8.832;2022-08-19T02:02:58;17.33;;;15.43;;
23113;SDS011;11726;50.122;8.832;2022-08-19T02:05:25;18.88;;;14.90;;
23113;SDS011;11726;50.122;8.832;2022-08-19T02:07:51;18.50;;;15.65;;
23113;SDS011;11726;50.122;8.832;2022-08-19T02:10:19;18.30;;;15.15;;
23113;SDS011;11726;50.122;8.832;2022-08-19T02:12:48;18.13;;;15.68;;
23113;SDS011;11726;50.122;8.832;2022-08-19T02:15:17;15.55;;;13.85;;
23113;SDS011;11726;50.122;8.832;2022-08-19T02:17:48;18.63;;;15.90;;
23113;SDS011;11726;50.122;8.832;2022-08-19T02:20:16;16.85;;;14.85;;
23113;SDS011;11726;50.122;8.832;2022-08-19T02:22:43;18.33;;;14.48;;
23113;SDS011;11726;50.122;8.832;2022-08-19T02:25:13;18.33;;;16.02;;
23113;SDS011;11726;50.122;8.832;2022-08-19T02:27:41;17.08;;;14.40;;
23113;SDS011;11726;50.122;8.832;2022-08-19T02:30:09;16.10;;;13.73;;
23113;SDS011;11726;50.122;8.832;2022-08-19T02:32:39;15.35;;;13.75;;
23113;SDS011;11726;50.122;8.832;2022-08-19T02:35:10;15.63;;;12.77;;
23113;SDS011;11726;50.122;8.832;2022-08-19T02:37:38;15.65;;;13.45;;
23113;SDS011;11726;50.122;8.832;2022-08-19T02:40:24;13.68;;;12.25;;
23113;SDS011;11726;50.122;8.832;2022-08-19T02:42:50;17.45;;;12.32;;
23113;SDS011;11726;50.122;8.832;2022-08-19T02:45:17;16.77;;;13.75;;
23113;SDS011;11726;50.122;8.832;2022-08-19T02:47:44;15.52;;;13.30;;
23113;SDS011;11726;50.122;8.832;2022-08-19T02:50:11;16.75;;;13.18;;
23113;SDS011;11726;50.122;8.832;2022-08-19T02:52:38;14.35;;;12.27;;
23113;SDS011;11726;50.122;8.832;2022-08-19T02:55:05;16.52;;;12.88;;
23113;SDS011;11726;50.122;8.832;2022-08-19T02:57:32;15.25;;;13.52;;
23113;SDS011;11726;50.122;8.832;2022-08-19T03:00:00;14.80;;;12.90;;
23113;SDS011;11726;50.122;8.832;2022-08-19T03:02:27;14.13;;;12.52;;
23113;SDS011;11726;50.122;8.832;2022-08-19T03:04:54;20.17;;;11.95;;
23113;SDS011;11726;50.122;8.832;2022-08-19T03:07:21;19.40;;;11.77;;
23113;SDS011;11726;50.122;8.832;2022-08-19T03:09:47;15.90;;;11.93;;
23113;SDS011;11726;50.122;8.832;2022-08-19T03:12:14;17.00;;;12.38;;
23113;SDS011;11726;50.122;8.832;2022-08-19T03:14:40;20.00;;;12.77;;
23113;SDS011;11726;50.122;8.832;2022-08-19T03:17:07;16.15;;;12.77;;
23113;SDS011;11726;50.122;8.832;2022-08-19T03:19:34;13.23;;;11.73;;
23113;SDS011;11726;50.122;8.832;2022-08-19T03:22:01;12.63;;;11.30;;
23113;SDS011;11726;50.122;8.832;2022-08-19T03:24:29;15.90;;;11.73;;
23113;SDS011;11726;50.122;8.832;2022-08-19T03:26:56;14.15;;;12.32;;
23113;SDS011;11726;50.122;8.832;2022-08-19T03:29:44;15.48;;;11.90;;
23113;SDS011;11726;50.122;8.832;2022-08-19T03:32:11;14.50;;;11.95;;
23113;SDS011;11726;50.122;8.832;2022-08-19T03:34:58;14.43;;;12.25;;
23113;SDS011;11726;50.122;8.832;2022-08-19T03:37:25;13.98;;;11.68;;
23113;SDS011;11726;50.122;8.832;2022-08-19T03:39:52;14.55;;;11.13;;
23113;SDS011;11726;50.122;8.832;2022-08-19T03:42:19;15.05;;;11.07;;
23113;SDS011;11726;50.122;8.832;2022-08-19T03:45:12;13.02;;;10.45;;
23113;SDS011;11726;50.122;8.832;2022-08-19T03:47:42;11.93;;;10.18;;
23113;SDS011;11726;50.122;8.832;2022-08-19T03:50:09;15.88;;;11.40;;
23113;SDS011;11726;50.122;8.832;2022-08-19T03:52:36;15.63;;;11.30;;
23113;SDS011;11726;50.122;8.832;2022-08-19T03:55:03;13.05;;;10.38;;
23113;SDS011;11726;50.122;8.832;2022-08-19T03:57:30;12.45;;;10.07;;
23113;SDS011;11726;50.122;8.832;2022-08-19T03:59:57;14.40;;;9.30;;
23113;SDS011;11726;50.122;8.832;2022-08-19T04:02:39;14.00;;;10.35;;
23113;SDS011;11726;50.122;8.832;2022-08-19T04:05:06;11.02;;;9.93;;
23113;SDS011;11726;50.122;8.832;2022-08-19T04:07:34;15.60;;;10.95;;
23113;SDS011;11726;50.122;8.832;2022-08-19T04:10:01;12.07;;;10.32;;
23113;SDS011;11726;50.122;8.832;2022-08-19T04:12:29;13.82;;;10.25;;
23113;SDS011;11726;50.122;8.832;2022-08-19T04:14:55;14.38;;;10.57;;
23113;SDS011;11726;50.122;8.832;2022-08-19T04:17:22;11.38;;;10.18;;
23113;SDS011;11726;50.122;8.832;2022-08-19T04:19:49;12.75;;;10.40;;
23113;SDS011;11726;50.122;8.832;2022-08-19T04:22:15;13.65;;;10.70;;
23113;SDS011;11726;50.122;8.832;2022-08-19T04:24:42;13.80;;;10.48;;
23113;SDS011;11726;50.122;8.832;2022-08-19T04:27:09;12.30;;;10.52;;
23113;SDS011;11726;50.122;8.832;2022-08-19T04:29:35;11.38;;;10.10;;
23113;SDS011;11726;50.122;8.832;2022-08-19T04:32:05;13.90;;;10.55;;
23113;SDS011;11726;50.122;8.832;2022-08-19T04:34:34;11.38;;;10.13;;
23113;SDS011;11726;50.122;8.832;2022-08-19T04:37:22;16.42;;;11.02;;
23113;SDS011;11726;50.122;8.832;2022-08-19T04:39:49;13.07;;;10.90;;
23113;SDS011;11726;50.122;8.832;2022-08-19T04:42:34;13.45;;;10.75;;
23113;SDS011;11726;50.122;8.832;2022-08-19T04:45:08;11.32;;;10.13;;
23113;SDS011;11726;50.122;8.832;2022-08-19T04:47:43;14.90;;;10.73;;
23113;SDS011;11726;50.122;8.832;2022-08-19T04:50:24;11.75;;;10.07;;
23113;SDS011;11726;50.122;8.832;2022-08-19T04:52:52;12.55;;;10.57;;
23113;SDS011;11726;50.122;8.832;2022-08-19T04:55:19;12.70;;;10.68;;
23113;SDS011;11726;50.122;8.832;2022-08-19T04:57:46;11.68;;;10.13;;
23113;SDS011;11726;50.122;8.832;2022-08-19T05:00:12;15.05;;;10.65;;
23113;SDS011;11726;50.122;8.832;2022-08-19T05:02:39;14.93;;;10.65;;
23113;SDS011;11726;50.122;8.832;2022-08-19T05:05:06;15.15;;;10.75;;
23113;SDS011;11726;50.122;8.832;2022-08-19T05:07:35;14.45;;;11.15;;
23113;SDS011;11726;50.122;8.832;2022-08-19T05:10:03;13.68;;;10.68;;
23113;SDS011;11726;50.122;8.832;2022-08-19T05:12:31;12.13;;;10.27;;
23113;SDS011;11726;50.122;8.832;2022-08-19T05:14:58;14.30;;;9.98;;
23113;SDS011;11726;50.122;8.832;2022-08-19T05:17:25;11.80;;;10.55;;
23113;SDS011;11726;50.122;8.832;2022-08-19T05:19:58;10.70;;;9.52;;
23113;SDS011;11726;50.122;8.832;2022-08-19T05:22:45;11.60;;;10.10;;
23113;SDS011;11726;50.122;8.832;2022-08-19T05:25:13;14.27;;;10.52;;
23113;SDS011;11726;50.122;8.832;2022-08-19T05:27:46;16.95;;;11.10;;
23113;SDS011;11726;50.122;8.832;2022-08-19T05:30:13;11.70;;;10.52;;
23113;SDS011;11726;50.122;8.832;2022-08-19T05:32:40;12.20;;;9.77;;
23113;SDS011;11726;50.122;8.832;2022-08-19T05:35:09;10.95;;;9.77;;
23113;SDS011;11726;50.122;8.832;2022-08-19T05:37:36;11.45;;;10.30;;
23113;SDS011;11726;50.122;8.832;2022-08-19T05:40:06;13.35;;;10.13;;
23113;SDS011;11726;50.122;8.832;2022-08-19T05:42:34;13.88;;;10.57;;
23113;SDS011;11726;50.122;8.832;2022-08-19T05:45:01;13.30;;;10.35;;
23113;SDS011;11726;50.122;8.832;2022-08-19T05:47:28;13.85;;;11.07;;
23113;SDS011;11726;50.122;8.832;2022-08-19T05:50:04;12.85;;;10.77;;
23113;SDS011;11726;50.122;8.832;2022-08-19T05:52:31;14.38;;;10.55;;
23113;SDS011;11726;50.122;8.832;2022-08-19T05:55:00;16.83;;;11.40;;
23113;SDS011;11726;50.122;8.832;2022-08-19T05:57:26;14.35;;;11.07;;
23113;SDS011;11726;50.122;8.832;2022-08-19T05:59:55;13.50;;;10.68;;
23113;SDS011;11726;50.122;8.832;2022-08-19T06:02:28;15.50;;;11.00;;
23113;SDS011;11726;50.122;8.832;2022-08-19T06:04:56;13.18;;;11.32;;
23113;SDS011;11726;50.122;8.832;2022-08-19T06:07:23;11.65;;;10.43;;
23113;SDS011;11726;50.122;8.832;2022-08-19T06:09:50;14.60;;;11.20;;
23113;SDS011;11726;50.122;8.832;2022-08-19T06:12:29;12.20;;;10.90;;
23113;SDS011;11726;50.122;8.832;2022-08-19T06:15:10;14.63;;;11.18;;
23113;SDS011;11726;50.122;8.832;2022-08-19T06:17:39;11.52;;;9.85;;
23113;SDS011;11726;50.122;8.832;2022-08-19T06:20:09;11.85;;;10.10;;
23113;SDS011;11726;50.122;8.832;2022-08-19T06:22:43;11.43;;;9.65;;
23113;SDS011;11726;50.122;8.832;2022-08-19T06:25:12;11.93;;;9.85;;
23113;SDS011;11726;50.122;8.832;2022-08-19T06:27:40;11.35;;;9.73;;
23113;SDS011;11726;50.122;8.832;2022-08-19T06:30:27;12.50;;;9.52;;
23113;SDS011;11726;50.122;8.832;2022-08-19T06:32:54;13.48;;;9.85;;
23113;SDS011;11726;50.122;8.832;2022-08-19T06:35:21;9.90;;;8.90;;
23113;SDS011;11726;50.122;8.832;2022-08-19T06:37:48;13.77;;;9.95;;
23113;SDS011;11726;50.122;8.832;2022-08-19T06:40:14;11.52;;;9.27;;
23113;SDS011;11726;50.122;8.832;2022-08-19T06:42:41;12.38;;;9.13;;
23113;SDS011;11726;50.122;8.832;2022-08-19T06:45:20;11.38;;;9.32;;
23113;SDS011;11726;50.122;8.832;2022-08-19T06:47:50;16.45;;;9.90;;
23113;SDS011;11726;50.122;8.832;2022-08-19T06:50:20;12.70;;;9.68;;
23113;SDS011;11726;50.122;8.832;2022-08-19T06:52:50;11.27;;;9.10;;
23113;SDS011;11726;50.122;8.832;2022-08-19T06:55:18;10.25;;;9.00;;
23113;SDS011;11726;50.122;8.832;2022-08-19T06:57:45;10.30;;;9.23;;
23113;SDS011;11726;50.122;8.832;2022-08-19T07:00:12;11.10;;;8.70;;
23113;SDS011;11726;50.122;8.832;2022-08-19T07:02:43;10.55;;;9.40;;
23113;SDS011;11726;50.122;8.832;2022-08-19T07:05:25;9.95;;;8.68;;
23113;SDS011;11726;50.122;8.832;2022-08-19T07:07:52;11.60;;;9.02;;
23113;SDS011;11726;50.122;8.832;2022-08-19T07:10:30;12.18;;;9.23;;
23113;SDS011;11726;50.122;8.832;2022-08-19T07:12:58;10.60;;;8.68;;
23113;SDS011;11726;50.122;8.832;2022-08-19T07:15:25;9.13;;;7.85;;
23113;SDS011;11726;50.122;8.832;2022-08-19T07:17:54;9.90;;;8.88;;
23113;SDS011;11726;50.122;8.832;2022-08-19T07:20:21;8.30;;;7.40;;
23113;SDS011;11726;50.122;8.832;2022-08-19T07:22:53;11.63;;;8.00;;
23113;SDS011;11726;50.122;8.832;2022-08-19T07:25:20;8.20;;;7.20;;
23113;SDS011;11726;50.122;8.832;2022-08-19T07:27:57;8.30;;;5.88;;
23113;SDS011;11726;50.122;8.832;2022-08-19T07:30:26;7.22;;;6.50;;
23113;SDS011;11726;50.122;8.832;2022-08-19T07:32:54;9.57;;;6.93;;
23113;SDS011;11726;50.122;8.832;2022-08-19T07:35:23;8.90;;;6.53;;
23113;SDS011;11726;50.122;8.832;2022-08-19T07:37:51;7.78;;;6.35;;
23113;SDS011;11726;50.122;8.832;2022-08-19T07:43:12;8.32;;;6.30;;
23113;SDS011;11726;50.122;8.832;2022-08-19T07:45:43;7.35;;;5.55;;
23113;SDS011;11726;50.122;8.832;2022-08-19T07:48:11;9.00;;;6.00;;
23113;SDS011;11726;50.122;8.832;2022-08-19T07:50:38;6.63;;;5.57;;
23113;SDS011;11726;50.122;8.832;2022-08-19T07:53:05;8.20;;;5.60;;
23113;SDS011;11726;50.122;8.832;2022-08-19T07:55:31;8.52;;;5.97;;
23113;SDS011;11726;50.122;8.832;2022-08-19T07:58:08;7.75;;;6.38;;
23113;SDS011;11726;50.122;8.832;2022-08-19T08:00:36;7.40;;;5.82;;
23113;SDS011;11726;50.122;8.832;2022-08-19T08:03:03;7.88;;;5.20;;
23113;SDS011;11726;50.122;8.832;2022-08-19T08:05:35;6.45;;;5.32;;
23113;SDS011;11726;50.122;8.832;2022-08-19T08:08:39;6.80;;;4.65;;
23113;SDS011;11726;50.122;8.832;2022-08-19T08:15:10;7.28;;;4.10;;
23113;SDS011;11726;50.122;8.832;2022-08-19T08:20:39;5.72;;;4.10;;
23113;SDS011;11726;50.122;8.832;2022-08-19T08:23:06;5.88;;;3.58;;
23113;SDS011;11726;50.122;8.832;2022-08-19T08:25:52;3.85;;;3.53;;
23113;SDS011;11726;50.122;8.832;2022-08-19T08:28:23;4.45;;;3.50;;
23113;SDS011;11726;50.122;8.832;2022-08-19T08:30:52;3.35;;;3.00;;
23113;SDS011;11726;50.122;8.832;2022-08-19T08:33:21;4.00;;;3.08;;
23113;SDS011;11726;50.122;8.832;2022-08-19T08:35:59;3.60;;;3.10;;
23113;SDS011;11726;50.122;8.832;2022-08-19T08:38:29;4.07;;;2.92;;
23113;SDS011;11726;50.122;8.832;2022-08-19T08:41:09;3.60;;;3.30;;
23113;SDS011;11726;50.122;8.832;2022-08-19T08:43:46;3.40;;;3.10;;
23113;SDS011;11726;50.122;8.832;2022-08-19T08:46:25;4.70;;;3.50;;
23113;SDS011;11726;50.122;8.832;2022-08-19T08:48:59;4.22;;;3.70;;
23113;SDS011;11726;50.122;8.832;2022-08-19T08:51:50;4.55;;;3.40;;
23113;SDS011;11726;50.122;8.832;2022-08-19T08:54:27;4.95;;;3.60;;
23113;SDS011;11726;50.122;8.832;2022-08-19T08:57:02;4.68;;;3.40;;
23113;SDS011;11726;50.122;8.832;2022-08-19T08:59:34;4.35;;;3.80;;
23113;SDS011;11726;50.122;8.832;2022-08-19T09:02:05;4.68;;;3.80;;
23113;SDS011;11726;50.122;8.832;2022-08-19T09:04:31;3.58;;;3.28;;
23113;SDS011;11726;50.122;8.832;2022-08-19T09:10:07;4.60;;;3.75;;
23113;SDS011;11726;50.122;8.832;2022-08-19T09:15:30;4.30;;;3.90;;
23113;SDS011;11726;50.122;8.832;2022-08-19T09:18:03;4.95;;;3.60;;
23113;SDS011;11726;50.122;8.832;2022-08-19T09:20:32;3.92;;;3.53;;
23113;SDS011;11726;50.122;8.832;2022-08-19T09:23:09;4.57;;;3.80;;
23113;SDS011;11726;50.122;8.832;2022-08-19T09:25:42;4.85;;;4.07;;
23113;SDS011;11726;50.122;8.832;2022-08-19T09:28:35;4.93;;;3.75;;
23113;SDS011;11726;50.122;8.832;2022-08-19T09:31:09;7.00;;;4.18;;
23113;SDS011;11726;50.122;8.832;2022-08-19T09:34:10;4.55;;;3.80;;
23113;SDS011;11726;50.122;8.832;2022-08-19T09:36:47;4.93;;;4.43;;
23113;SDS011;11726;50.122;8.832;2022-08-19T09:39:18;6.60;;;4.80;;
23113;SDS011;11726;50.122;8.832;2022-08-19T09:41:45;7.32;;;4.65;;
23113;SDS011;11726;50.122;8.832;2022-08-19T09:44:14;4.80;;;4.38;;
23113;SDS011;11726;50.122;8.832;2022-08-19T09:46:44;7.75;;;4.95;;
23113;SDS011;11726;50.122;8.832;2022-08-19T09:49:14;4.82;;;4.00;;
23113;SDS011;11726;50.122;8.832;2022-08-19T09:51:43;5.20;;;4.50;;
23113;SDS011;11726;50.122;8.832;2022-08-19T09:54:16;6.35;;;4.45;;
23113;SDS011;11726;50.122;8.832;2022-08-19T09:56:50;5.40;;;4.15;;
23113;SDS011;11726;50.122;8.832;2022-08-19T09:59:20;5.53;;;4.00;;
23113;SDS011;11726;50.122;8.832;2022-08-19T10:01:47;4.95;;;4.45;;
23113;SDS011;11726;50.122;8.832;2022-08-19T10:04:14;5.45;;;3.80;;
23113;SDS011;11726;50.122;8.832;2022-08-19T10:06:47;4.80;;;4.40;;
23113;SDS011;11726;50.122;8.832;2022-08-19T10:09:19;5.22;;;4.20;;
23113;SDS011;11726;50.122;8.832;2022-08-19T10:11:59;6.40;;;4.05;;
23113;SDS011;11726;50.122;8.832;2022-08-19T10:14:27;5.90;;;3.95;;
23113;SDS011;11726;50.122;8.832;2022-08-19T10:16:54;4.90;;;4.20;;
23113;SDS011;11726;50.122;8.832;2022-08-19T10:19:24;4.88;;;4.47;;
23113;SDS011;11726;50.122;8.832;2022-08-19T10:21:52;5.03;;;4.38;;
23113;SDS011;11726;50.122;8.832;2022-08-19T10:24:25;6.43;;;4.65;;
23113;SDS011;11726;50.122;8.832;2022-08-19T10:26:53;6.88;;;4.40;;
23113;SDS011;11726;50.122;8.832;2022-08-19T10:29:27;5.45;;;4.53;;
23113;SDS011;11726;50.122;8.832;2022-08-19T10:31:59;4.70;;;3.97;;
23113;SDS011;11726;50.122;8.832;2022-08-19T10:34:28;4.90;;;3.53;;
23113;SDS011;11726;50.122;8.832;2022-08-19T10:36:56;5.30;;;3.92;;
23113;SDS011;11726;50.122;8.832;2022-08-19T10:39:27;4.13;;;3.30;;
23113;SDS011;11726;50.122;8.832;2022-08-19T10:42:08;4.00;;;3.60;;
23113;SDS011;11726;50.122;8.832;2022-08-19T10:44:36;4.68;;;3.40;;
23113;SDS011;11726;50.122;8.832;2022-08-19T10:47:03;6.28;;;3.80;;
23113;SDS011;11726;50.122;8.832;2022-08-19T10:49:43;3.78;;;3.47;;
23113;SDS011;11726;50.122;8.832;2022-08-19T10:55:04;4.07;;;3.67;;
23113;SDS011;11726;50.122;8.832;2022-08-19T10:57:58;3.78;;;3.40;;
23113;SDS011;11726;50.122;8.832;2022-08-19T11:00:27;3.78;;;3.38;;
23113;SDS011;11726;50.122;8.832;2022-08-19T11:02:56;4.85;;;4.35;;
23113;SDS011;11726;50.122;8.832;2022-08-19T11:05:26;4.30;;;3.50;;
23113;SDS011;11726;50.122;8.832;2022-08-19T11:07:52;6.20;;;4.15;;
23113;SDS011;11726;50.122;8.832;2022-08-19T11:10:19;3.55;;;3.22;;
23113;SDS011;11726;50.122;8.832;2022-08-19T11:12:47;3.60;;;3.30;;
23113;SDS011;11726;50.122;8.832;2022-08-19T11:15:14;5.20;;;3.83;;
23113;SDS011;11726;50.122;8.832;2022-08-19T11:17:41;5.00;;;3.60;;
23113;SDS011;11726;50.122;8.832;2022-08-19T11:20:13;6.30;;;3.33;;
23113;SDS011;11726;50.122;8.832;2022-08-19T11:22:41;4.03;;;3.40;;
23113;SDS011;11726;50.122;8.832;2022-08-19T11:25:08;3.42;;;3.22;;
23113;SDS011;11726;50.122;8.832;2022-08-19T11:27:37;4.30;;;3.50;;
23113;SDS011;11726;50.122;8.832;2022-08-19T11:30:07;3.72;;;3.50;;
23113;SDS011;11726;50.122;8.832;2022-08-19T11:32:38;3.90;;;3.60;;
23113;SDS011;11726;50.122;8.832;2022-08-19T11:35:23;4.22;;;3.83;;
23113;SDS011;11726;50.122;8.832;2022-08-19T11:37:50;6.57;;;3.45;;
23113;SDS011;11726;50.122;8.832;2022-08-19T11:40:17;5.18;;;3.40;;
23113;SDS011;11726;50.122;8.832;2022-08-19T11:42:44;4.40;;;3.90;;
23113;SDS011;11726;50.122;8.832;2022-08-19T11:45:34;5.30;;;3.38;;
23113;SDS011;11726;50.122;8.832;2022-08-19T11:48:26;4.75;;;3.50;;
23113;SDS011;11726;50.122;8.832;2022-08-19T11:50:53;5.03;;;3.83;;
23113;SDS011;11726;50.122;8.832;2022-08-19T11:53:23;4.35;;;3.40;;
23113;SDS011;11726;50.122;8.832;2022-08-19T11:55:50;5.15;;;3.90;;
23113;SDS011;11726;50.122;8.832;2022-08-19T11:58:22;5.35;;;4.35;;
23113;SDS011;11726;50.122;8.832;2022-08-19T12:00:48;4.50;;;4.10;;
23113;SDS011;11726;50.122;8.832;2022-08-19T12:03:15;5.72;;;4.47;;
23113;SDS011;11726;50.122;8.832;2022-08-19T12:05:45;4.93;;;4.50;;
23113;SDS011;11726;50.122;8.832;2022-08-19T12:08:12;4.57;;;4.18;;
23113;SDS011;11726;50.122;8.832;2022-08-19T12:10:40;5.30;;;4.80;;
23113;SDS011;11726;50.122;8.832;2022-08-19T12:13:08;5.68;;;4.85;;
23113;SDS011;11726;50.122;8.832;2022-08-19T12:15:37;5.85;;;4.50;;
23113;SDS011;11726;50.122;8.832;2022-08-19T12:18:04;5.28;;;4.70;;
23113;SDS011;11726;50.122;8.832;2022-08-19T12:20:31;4.93;;;4.50;;
23113;SDS011;11726;50.122;8.832;2022-08-19T12:23:02;4.85;;;4.38;;
23113;SDS011;11726;50.122;8.832;2022-08-19T12:25:29;4.68;;;4.28;;
23113;SDS011;11726;50.122;8.832;2022-08-19T12:27:57;5.15;;;4.75;;
23113;SDS011;11726;50.122;8.832;2022-08-19T12:30:27;5.28;;;4.88;;
23113;SDS011;11726;50.122;8.832;2022-08-19T12:32:54;5.40;;;4.90;;
23113;SDS011;11726;50.122;8.832;2022-08-19T12:35:22;5.50;;;4.78;;
23113;SDS011;11726;50.122;8.832;2022-08-19T12:37:49;7.05;;;5.78;;
23113;SDS011;11726;50.122;8.832;2022-08-19T12:40:22;6.00;;;5.45;;
23113;SDS011;11726;50.122;8.832;2022-08-19T12:42:52;5.50;;;5.10;;
23113;SDS011;11726;50.122;8.832;2022-08-19T12:45:19;5.95;;;5.45;;
23113;SDS011;11726;50.122;8.832;2022-08-19T12:47:46;8.10;;;5.75;;
23113;SDS011;11726;50.122;8.832;2022-08-19T12:50:18;7.32;;;6.72;;
23113;SDS011;11726;50.122;8.832;2022-08-19T12:52:45;8.00;;;7.30;;
23113;SDS011;11726;50.122;8.832;2022-08-19T12:55:12;8.25;;;7.40;;
23113;SDS011;11726;50.122;8.832;2022-08-19T12:57:38;8.80;;;7.10;;
23113;SDS011;11726;50.122;8.832;2022-08-19T13:00:07;8.05;;;7.35;;
23113;SDS011;11726;50.122;8.832;2022-08-19T13:02:41;8.40;;;7.60;;
23113;SDS011;11726;50.122;8.832;2022-08-19T13:05:13;8.95;;;8.15;;
23113;SDS011;11726;50.122;8.832;2022-08-19T13:07:42;8.40;;;7.60;;
23113;SDS011;11726;50.122;8.832;2022-08-19T13:10:12;8.85;;;7.95;;
23113;SDS011;11726;50.122;8.832;2022-08-19T13:12:42;6.15;;;5.63;;
23113;SDS011;11726;50.122;8.832;2022-08-19T13:15:13;6.22;;;5.70;;
23113;SDS011;11726;50.122;8.832;2022-08-19T13:17:43;7.57;;;5.60;;
23113;SDS011;11726;50.122;8.832;2022-08-19T13:20:10;6.53;;;6.03;;
23113;SDS011;11726;50.122;8.832;2022-08-19T13:22:37;7.88;;;7.07;;
23113;SDS011;11726;50.122;8.832;2022-08-19T13:25:05;6.85;;;6.10;;
23113;SDS011;11726;50.122;8.832;2022-08-19T13:27:33;6.70;;;6.10;;
23113;SDS011;11726;50.122;8.832;2022-08-19T13:30:00;6.40;;;5.90;;
23113;SDS011;11726;50.122;8.832;2022-08-19T13:32:46;7.43;;;6.72;;
23113;SDS011;11726;50.122;8.832;2022-08-19T13:35:31;6.97;;;6.47;;
23113;SDS011;11726;50.122;8.832;2022-08-19T13:37:59;8.25;;;7.47;;
23113;SDS011;11726;50.122;8.832;2022-08-19T13:40:27;8.75;;;8.02;;
23113;SDS011;11726;50.122;8.832;2022-08-19T13:42:57;8.57;;;7.80;;
23113;SDS011;11726;50.122;8.832;2022-08-19T13:45:24;9.00;;;8.18;;
23113;SDS011;11726;50.122;8.832;2022-08-19T13:47:53;9.48;;;8.40;;
23113;SDS011;11726;50.122;8.832;2022-08-19T13:50:26;8.95;;;8.15;;
23113;SDS011;11726;50.122;8.832;2022-08-19T13:52:55;9.00;;;8.10;;
23113;SDS011;11726;50.122;8.832;2022-08-19T13:55:22;7.82;;;7.03;;
23113;SDS011;11726;50.122;8.832;2022-08-19T13:57:51;7.43;;;6.20;;
23113;SDS011;11726;50.122;8.832;2022-08-19T14:00:23;6.90;;;6.18;;
23113;SDS011;11726;50.122;8.832;2022-08-19T14:02:53;7.32;;;6.72;;
23113;SDS011;11726;50.122;8.832;2022-08-19T14:05:21;7.82;;;7.07;;
23113;SDS011;11726;50.122;8.832;2022-08-19T14:07:49;7.07;;;6.50;;
23113;SDS011;11726;50.122;8.832;2022-08-19T14:10:16;7.47;;;6.78;;
23113;SDS011;11726;50.122;8.832;2022-08-19T14:12:43;6.60;;;6.00;;
23113;SDS011;11726;50.122;8.832;2022-08-19T14:15:11;6.28;;;5.68;;
23113;SDS011;11726;50.122;8.832;2022-08-19T14:17:39;6.30;;;5.72;;
23113;SDS011;11726;50.122;8.832;2022-08-19T14:20:08;6.28;;;5.68;;
23113;SDS011;11726;50.122;8.832;2022-08-19T14:22:43;6.55;;;5.95;;
23113;SDS011;11726;50.122;8.832;2022-08-19T14:25:12;6.05;;;5.55;;
23113;SDS011;11726;50.122;8.832;2022-08-19T14:27:43;5.53;;;4.97;;
23113;SDS011;11726;50.122;8.832;2022-08-19T14:30:11;5.53;;;4.93;;
23113;SDS011;11726;50.122;8.832;2022-08-19T14:32:42;6.85;;;5.00;;
23113;SDS011;11726;50.122;8.832;2022-08-19T14:35:10;5.40;;;4.70;;
23113;SDS011;11726;50.122;8.832;2022-08-19T14:37:38;5.03;;;4.53;;
23113;SDS011;11726;50.122;8.832;2022-08-19T14:40:11;5.18;;;4.68;;
23113;SDS011;11726;50.122;8.832;2022-08-19T14:42:41;5.15;;;4.45;;
23113;SDS011;11726;50.122;8.832;2022-08-19T14:45:08;4.43;;;4.13;;
23113;SDS011;11726;50.122;8.832;2022-08-19T14:47:36;4.68;;;4.28;;
23113;SDS011;11726;50.122;8.832;2022-08-19T14:50:06;4.72;;;4.15;;
23113;SDS011;11726;50.122;8.832;2022-08-19T14:52:43;5.50;;;4.05;;
23113;SDS011;11726;50.122;8.832;2022-08-19T14:55:09;4.40;;;4.00;;
23113;SDS011;11726;50.122;8.832;2022-08-19T14:57:36;5.80;;;3.88;;
23113;SDS011;11726;50.122;8.832;2022-08-19T15:00:03;4.38;;;4.07;;
23113;SDS011;11726;50.122;8.832;2022-08-19T15:02:30;8.32;;;3.90;;
23113;SDS011;11726;50.122;8.832;2022-08-19T15:05:00;4.75;;;3.60;;
23113;SDS011;11726;50.122;8.832;2022-08-19T15:07:28;4.97;;;4.43;;
23113;SDS011;11726;50.122;8.832;2022-08-19T15:09:55;5.80;;;5.18;;
23113;SDS011;11726;50.122;8.832;2022-08-19T15:12:23;6.10;;;5.50;;
23113;SDS011;11726;50.122;8.832;2022-08-19T15:14:50;5.80;;;5.30;;
23113;SDS011;11726;50.122;8.832;2022-08-19T15:17:21;6.22;;;5.00;;
23113;SDS011;11726;50.122;8.832;2022-08-19T15:19:59;5.15;;;4.60;;